createdAt,value
2017-06-03T00:02:10.973Z,65.40
2017-06-03T00:04:37.167Z,64.70
2017-06-03T00:07:03.396Z,64.50
2017-06-03T00:09:29.575Z,64.50
2017-06-03T00:11:55.762Z,64.70
2017-06-03T00:14:21.954Z,64.80
2017-06-03T00:16:48.179Z,65.10
2017-06-03T00:19:14.874Z,65.40
2017-06-03T00:21:41.044Z,65.80
2017-06-03T00:24:10.138Z,65.20
2017-06-03T00:26:36.620Z,66.00
2017-06-03T00:29:02.913Z,64.70
2017-06-03T00:31:29.114Z,64.80
2017-06-03T00:33:55.270Z,65.10
2017-06-03T00:36:22.085Z,65.10
2017-06-03T00:38:48.267Z,65.30
2017-06-03T00:41:14.467Z,65.00
2017-06-03T00:43:40.649Z,64.90
2017-06-03T00:46:07.655Z,65.70
2017-06-03T00:48:33.847Z,65.10
2017-06-03T00:51:00.031Z,65.70
2017-06-03T00:53:26.208Z,65.90
2017-06-03T00:55:52.398Z,66.70
2017-06-03T00:58:18.596Z,66.30
2017-06-03T01:00:47.599Z,66.00
2017-06-03T01:03:13.764Z,66.60
2017-06-03T01:05:40.647Z,66.10
2017-06-03T01:08:06.846Z,65.10
2017-06-03T01:10:33.767Z,65.80
2017-06-03T01:12:59.934Z,65.80
2017-06-03T01:15:26.129Z,66.10
2017-06-03T01:17:52.300Z,66.40
2017-06-03T01:20:18.520Z,66.40
2017-06-03T01:22:44.683Z,66.80
2017-06-03T01:25:10.881Z,67.10
2017-06-03T01:27:37.031Z,66.90
2017-06-03T01:30:03.195Z,67.00
2017-06-03T01:32:29.418Z,67.50
2017-06-03T01:34:55.578Z,66.30
2017-06-03T01:37:21.776Z,65.90
2017-06-03T01:39:48.019Z,66.50
2017-06-03T01:42:14.971Z,67.50
2017-06-03T01:44:41.936Z,67.50
2017-06-03T01:47:08.103Z,67.50
2017-06-03T01:49:34.303Z,68.20
2017-06-03T01:52:00.477Z,67.60
2017-06-03T01:54:26.670Z,67.80
2017-06-03T01:56:52.858Z,66.90
2017-06-03T01:59:19.788Z,67.60
2017-06-03T02:01:45.931Z,66.70
2017-06-03T02:04:12.836Z,67.70
2017-06-03T02:06:39.016Z,67.70
2017-06-03T02:09:05.183Z,67.70
2017-06-03T02:11:31.398Z,66.10
2017-06-03T02:13:57.611Z,66.80
2017-06-03T02:16:23.799Z,66.80
2017-06-03T02:18:50.776Z,66.50
2017-06-03T02:21:16.961Z,66.00
2017-06-03T02:23:43.156Z,66.40
2017-06-03T02:26:09.351Z,66.60
2017-06-03T02:28:36.372Z,67.10
2017-06-03T02:31:02.570Z,66.90
2017-06-03T02:33:29.511Z,66.90
2017-06-03T02:35:55.743Z,66.90
2017-06-03T02:38:21.927Z,67.10
2017-06-03T02:40:48.133Z,67.70
2017-06-03T02:43:14.360Z,67.50
2017-06-03T02:45:40.543Z,67.50
2017-06-03T02:48:06.726Z,66.80
2017-06-03T02:50:32.903Z,67.20
2017-06-03T02:52:59.138Z,66.90
2017-06-03T02:55:25.300Z,66.70
2017-06-03T02:57:51.499Z,66.90
2017-06-03T03:00:17.672Z,66.80
2017-06-03T03:02:44.608Z,67.70
2017-06-03T03:05:10.812Z,67.60
2017-06-03T03:07:36.953Z,67.50
2017-06-03T03:10:03.136Z,67.50
2017-06-03T03:12:30.283Z,67.30
2017-06-03T03:14:56.475Z,67.70
2017-06-03T03:17:22.715Z,66.90
2017-06-03T03:19:49.612Z,67.40
2017-06-03T03:22:15.783Z,67.40
2017-06-03T03:24:42.728Z,67.70
2017-06-03T03:27:09.645Z,68.10
2017-06-03T03:29:35.782Z,67.90
2017-06-03T03:32:01.964Z,67.70
2017-06-03T03:34:28.185Z,67.30
2017-06-03T03:36:54.368Z,67.80
2017-06-03T03:39:20.545Z,68.20
2017-06-03T03:41:46.716Z,67.50
2017-06-03T03:44:12.887Z,67.90
2017-06-03T03:46:39.061Z,67.40
2017-06-03T03:49:05.244Z,68.00
2017-06-03T03:51:31.410Z,67.50
2017-06-03T03:53:57.570Z,68.30
2017-06-03T03:56:23.734Z,68.20
2017-06-03T03:58:49.899Z,68.30
2017-06-03T04:01:16.068Z,68.10
2017-06-03T04:03:42.945Z,67.60
2017-06-03T04:06:09.126Z,67.60
2017-06-03T04:08:35.323Z,67.10
2017-06-03T04:11:01.521Z,67.60
2017-06-03T04:13:27.702Z,67.60
2017-06-03T04:15:53.895Z,67.90
2017-06-03T04:18:20.041Z,68.30
2017-06-03T04:20:46.256Z,69.00
2017-06-03T04:23:12.439Z,69.60
2017-06-03T04:25:39.357Z,68.90
2017-06-03T04:28:05.542Z,68.80
2017-06-03T04:30:31.809Z,69.30
2017-06-03T04:32:57.955Z,70.00
2017-06-03T04:35:24.884Z,69.90
2017-06-03T04:37:51.095Z,69.50
2017-06-03T04:40:17.292Z,69.80
2017-06-03T04:42:43.489Z,69.90
2017-06-03T04:45:10.443Z,70.30
2017-06-03T04:47:37.432Z,70.30
2017-06-03T04:50:03.591Z,70.30
2017-06-03T04:52:29.760Z,69.50
2017-06-03T04:54:55.959Z,69.80
2017-06-03T04:57:22.418Z,70.40
2017-06-03T04:59:48.576Z,70.20
2017-06-03T05:02:14.782Z,70.90
2017-06-03T05:04:40.938Z,70.50
2017-06-03T05:07:07.109Z,69.70
2017-06-03T05:09:34.050Z,71.70
2017-06-03T05:12:00.215Z,71.10
2017-06-03T05:14:26.385Z,70.70
2017-06-03T05:16:52.585Z,71.10
2017-06-03T05:19:18.783Z,71.50
2017-06-03T05:21:45.720Z,71.70
2017-06-03T05:24:11.943Z,71.40
2017-06-03T05:26:38.847Z,71.40
2017-06-03T05:29:05.034Z,70.10
2017-06-03T05:31:31.255Z,70.60
2017-06-03T05:33:58.201Z,70.40
2017-06-03T05:36:24.387Z,70.30
2017-06-03T05:38:50.555Z,68.40
2017-06-03T05:41:17.539Z,67.40
2017-06-03T05:43:43.725Z,67.00
2017-06-03T05:46:10.631Z,67.00
2017-06-03T05:48:36.831Z,66.80
2017-06-03T05:51:03.045Z,66.90
2017-06-03T05:53:29.235Z,66.30
2017-06-03T05:55:55.396Z,66.90
2017-06-03T05:58:21.605Z,65.80
2017-06-03T06:00:48.531Z,67.00
2017-06-03T06:03:14.704Z,67.60
2017-06-03T06:05:40.932Z,65.70
2017-06-03T06:08:07.121Z,64.70
2017-06-03T06:10:33.347Z,65.20
2017-06-03T06:12:59.545Z,64.60
2017-06-03T06:15:25.742Z,61.50
2017-06-03T06:17:51.982Z,61.80
2017-06-03T06:20:18.181Z,62.50
2017-06-03T06:22:45.084Z,62.00
2017-06-03T06:25:11.287Z,62.00
2017-06-03T06:27:37.862Z,60.30
2017-06-03T06:30:04.404Z,61.20
2017-06-03T06:32:30.607Z,62.10
2017-06-03T06:34:56.770Z,61.80
2017-06-03T06:37:23.694Z,61.20
2017-06-03T06:49:39.930Z,64.60
2017-06-03T06:52:07.616Z,64.30
2017-06-03T06:54:33.852Z,64.10
2017-06-03T06:57:00.210Z,64.80
2017-06-03T06:59:27.181Z,66.10
2017-06-03T07:01:53.514Z,63.80
2017-06-03T07:04:19.805Z,64.80
2017-06-03T07:06:46.199Z,64.90
2017-06-03T07:09:12.416Z,63.00
2017-06-03T07:17:44.881Z,62.00
2017-06-03T07:20:17.317Z,61.40
2017-06-03T07:22:44.044Z,62.50
2017-06-03T07:28:11.344Z,62.30
2017-06-03T07:33:42.380Z,60.50
2017-06-03T07:49:09.399Z,61.50
2017-06-03T07:51:35.629Z,61.30
2017-06-03T07:54:03.036Z,59.70
2017-06-03T07:56:29.243Z,59.80
2017-06-03T07:58:55.475Z,59.10
2017-06-03T08:01:21.693Z,60.30
2017-06-03T08:03:47.847Z,59.20
2017-06-03T08:06:15.008Z,58.80
2017-06-03T08:08:41.302Z,59.10
2017-06-03T08:11:07.541Z,59.60
2017-06-03T08:13:34.303Z,59.50
2017-06-03T08:16:00.516Z,59.40
2017-06-03T08:18:26.702Z,59.90
2017-06-03T08:20:53.611Z,60.50
2017-06-03T08:23:19.811Z,58.70
2017-06-03T08:25:46.095Z,59.20
2017-06-03T08:28:12.318Z,58.90
2017-06-03T08:30:39.351Z,56.70
2017-06-03T08:33:05.568Z,54.40
2017-06-03T08:35:31.847Z,55.20
2017-06-03T08:37:58.800Z,54.60
2017-06-03T08:40:26.197Z,53.70
2017-06-03T08:42:52.447Z,52.90
2017-06-03T08:45:18.814Z,53.60
2017-06-03T08:47:46.678Z,53.60
2017-06-03T08:50:13.006Z,51.90
2017-06-03T08:52:39.516Z,51.70
2017-06-03T08:55:05.716Z,52.10
2017-06-03T08:57:31.913Z,51.90
2017-06-03T08:59:59.021Z,51.20
2017-06-03T09:02:25.350Z,51.40
2017-06-03T09:04:51.552Z,50.80
2017-06-03T09:07:18.118Z,51.00
2017-06-03T09:09:45.290Z,49.80
2017-06-03T09:12:11.667Z,48.80
2017-06-03T09:14:38.175Z,49.60
2017-06-03T09:17:04.706Z,48.00
2017-06-03T09:19:31.061Z,48.00
2017-06-03T09:21:57.419Z,47.50
2017-06-03T09:24:23.789Z,48.80
2017-06-03T09:26:50.160Z,48.10
2017-06-03T09:29:16.493Z,47.20
2017-06-03T09:31:42.947Z,47.80
2017-06-03T09:34:10.289Z,46.30
2017-06-03T09:36:37.433Z,46.40
2017-06-03T09:39:03.880Z,47.10
2017-06-03T09:41:30.858Z,45.40
2017-06-03T09:43:57.509Z,44.30
2017-06-03T09:46:23.883Z,45.00
2017-06-03T09:48:50.305Z,43.40
2017-06-03T09:51:16.668Z,44.30
2017-06-03T09:53:43.188Z,44.80
2017-06-03T09:56:09.586Z,45.50
2017-06-03T09:58:36.779Z,44.60
2017-06-03T10:01:03.222Z,40.40
2017-06-03T10:03:29.721Z,39.30
2017-06-03T10:06:11.973Z,37.60
2017-06-03T10:08:38.277Z,36.70
2017-06-03T10:11:04.496Z,38.00
2017-06-03T10:13:30.730Z,36.40
2017-06-03T10:15:56.972Z,34.30
2017-06-03T10:18:23.114Z,33.90
2017-06-03T10:20:49.335Z,32.90
2017-06-03T10:23:15.506Z,32.80
2017-06-03T10:25:41.696Z,32.70
2017-06-03T10:28:07.972Z,32.50
2017-06-03T10:30:36.898Z,34.20
2017-06-03T10:33:04.059Z,32.40
2017-06-03T10:35:30.280Z,32.10
2017-06-03T10:37:56.493Z,32.00
2017-06-03T10:40:22.709Z,32.50
2017-06-03T10:42:49.612Z,33.70
2017-06-03T10:45:15.823Z,33.90
2017-06-03T10:47:42.399Z,36.10
2017-06-03T10:50:08.616Z,38.20
2017-06-03T10:52:34.784Z,36.70
2017-06-03T10:55:00.983Z,37.20
2017-06-03T10:57:27.154Z,38.40
2017-06-03T10:59:53.348Z,40.80
2017-06-03T11:02:19.587Z,41.90
2017-06-03T11:04:45.767Z,41.00
2017-06-03T11:07:12.007Z,40.80
2017-06-03T11:09:38.571Z,42.00
2017-06-03T11:12:05.633Z,43.40
2017-06-03T11:14:32.615Z,45.20
2017-06-03T11:16:59.171Z,44.10
2017-06-03T11:19:25.677Z,44.70
2017-06-03T11:21:51.883Z,45.10
2017-06-03T11:24:18.827Z,45.90
2017-06-03T11:26:45.853Z,46.00
2017-06-03T11:29:12.043Z,46.70
2017-06-03T11:31:38.269Z,49.70
2017-06-03T11:34:04.463Z,50.60
2017-06-03T11:36:32.367Z,55.10
2017-06-03T11:38:58.700Z,54.90
2017-06-03T11:51:10.758Z,60.40
2017-06-03T11:53:36.923Z,61.10
2017-06-03T11:56:03.116Z,62.70
2017-06-03T11:58:30.122Z,62.20
2017-06-03T12:00:56.385Z,57.90
2017-06-03T12:03:22.656Z,54.60
2017-06-03T12:05:49.017Z,51.30
2017-06-03T12:08:15.300Z,50.00
2017-06-03T12:10:41.519Z,50.40
2017-06-03T12:13:07.741Z,51.50
2017-06-03T12:15:33.944Z,52.60
2017-06-03T12:18:00.379Z,53.60
2017-06-03T12:20:26.603Z,53.60
2017-06-03T12:22:52.803Z,56.20
2017-06-03T12:25:22.584Z,57.20
2017-06-03T12:27:48.754Z,60.40
2017-06-03T12:30:17.945Z,62.40
2017-06-03T12:32:44.112Z,63.50
2017-06-03T12:35:10.320Z,64.10
2017-06-03T12:37:36.534Z,62.70
2017-06-03T12:40:02.731Z,61.20
2017-06-03T12:42:28.972Z,61.20
2017-06-03T12:44:55.182Z,61.70
2017-06-03T12:47:21.381Z,62.40
2017-06-03T12:49:47.701Z,61.50
2017-06-03T12:52:19.171Z,59.70
2017-06-03T12:54:48.715Z,59.60
2017-06-03T12:57:14.913Z,57.60
2017-06-03T12:59:41.096Z,55.30
2017-06-03T13:02:07.351Z,53.10
2017-06-03T13:04:33.522Z,51.90
2017-06-03T13:06:59.707Z,50.70
2017-06-03T13:09:25.894Z,50.00
2017-06-03T13:11:52.051Z,49.30
2017-06-03T13:14:19.051Z,52.10
2017-06-03T13:16:46.991Z,52.60
2017-06-03T13:19:13.189Z,52.60
2017-06-03T13:21:40.189Z,51.80
2017-06-03T13:24:06.389Z,51.80
2017-06-03T13:26:32.594Z,49.30
2017-06-03T13:29:04.209Z,48.70
2017-06-03T13:31:32.492Z,48.70
2017-06-03T13:33:58.963Z,48.10
2017-06-03T13:36:40.935Z,48.10
2017-06-03T13:39:07.208Z,48.10
2017-06-03T13:41:33.462Z,48.70
2017-06-03T13:43:59.655Z,50.00
2017-06-03T13:46:26.591Z,51.80
2017-06-03T13:48:53.574Z,50.60
2017-06-03T13:51:19.895Z,50.20
2017-06-03T13:53:46.120Z,48.10
2017-06-03T13:56:12.287Z,46.40
2017-06-03T13:58:38.511Z,47.10
2017-06-03T14:01:04.750Z,48.20
2017-06-03T14:03:30.959Z,48.70
2017-06-03T14:05:57.140Z,51.00
2017-06-03T14:08:24.086Z,52.20
2017-06-03T14:10:51.036Z,49.20
2017-06-03T14:13:17.921Z,49.50
2017-06-03T14:15:44.131Z,49.40
2017-06-03T14:18:10.396Z,50.70
2017-06-03T14:20:36.561Z,49.70
2017-06-03T14:23:03.471Z,50.10
2017-06-03T14:25:29.623Z,50.10
2017-06-03T14:27:56.224Z,51.00
2017-06-03T14:30:22.429Z,51.60
2017-06-03T14:32:49.335Z,52.30
2017-06-03T14:35:15.555Z,52.20
2017-06-03T14:37:43.521Z,52.50
2017-06-03T14:40:10.200Z,53.70
2017-06-03T14:42:37.013Z,52.20
2017-06-03T14:45:03.740Z,54.80
2017-06-03T14:47:29.955Z,54.80
2017-06-03T14:49:56.124Z,52.50
2017-06-03T14:52:23.101Z,54.60
2017-06-03T14:54:49.289Z,54.60
2017-06-03T14:57:15.476Z,54.60
2017-06-03T14:59:41.738Z,55.10
2017-06-03T15:02:07.940Z,56.10
2017-06-03T15:14:19.174Z,55.70
2017-06-03T15:16:46.439Z,55.00
2017-06-03T15:19:12.655Z,56.70
2017-06-03T15:21:38.891Z,57.80
2017-06-03T15:24:05.105Z,58.50
2017-06-03T15:26:31.324Z,58.60
2017-06-03T15:28:57.503Z,57.60
2017-06-03T15:31:38.652Z,59.10
2017-06-03T15:34:04.830Z,59.10
2017-06-03T15:36:31.031Z,59.90
2017-06-03T15:38:57.273Z,60.00
2017-06-03T15:41:23.529Z,60.60
2017-06-03T15:43:50.481Z,60.80
2017-06-03T15:46:16.706Z,60.60
2017-06-03T15:48:42.956Z,60.20
2017-06-03T15:51:09.122Z,61.60
2017-06-03T15:53:35.367Z,61.90
2017-06-03T15:56:01.611Z,60.60
2017-06-03T15:58:28.567Z,60.10
2017-06-03T16:00:54.759Z,60.10
2017-06-03T16:03:20.929Z,59.50
2017-06-03T16:05:47.836Z,61.60
2017-06-03T16:08:14.068Z,61.50
2017-06-03T16:10:40.252Z,60.40
2017-06-03T16:13:06.442Z,59.90
2017-06-03T16:15:32.641Z,60.80
2017-06-03T16:17:58.870Z,60.80
2017-06-03T16:20:25.068Z,60.50
2017-06-03T16:22:51.540Z,60.80
2017-06-03T16:25:17.718Z,61.40
2017-06-03T16:27:43.907Z,61.80
2017-06-03T16:30:10.141Z,61.20
2017-06-03T16:32:36.333Z,61.80
2017-06-03T16:35:02.575Z,60.60
2017-06-03T16:37:28.812Z,60.60
2017-06-03T16:39:54.994Z,61.60
2017-06-03T16:42:21.159Z,61.60
2017-06-03T16:44:47.361Z,61.00
2017-06-03T16:47:13.556Z,61.50
2017-06-03T16:49:39.776Z,62.10
2017-06-03T16:52:05.934Z,62.10
2017-06-03T16:54:32.176Z,61.50
2017-06-03T16:56:58.355Z,62.10
2017-06-03T16:59:25.329Z,64.10
2017-06-03T17:01:51.524Z,63.10
2017-06-03T17:04:17.756Z,62.60
2017-06-03T17:06:43.925Z,62.60
2017-06-03T17:09:10.249Z,62.00
2017-06-03T17:11:36.445Z,62.80
2017-06-03T17:14:03.435Z,63.60
2017-06-03T17:16:29.649Z,63.60
2017-06-03T17:18:56.059Z,62.10
2017-06-03T17:21:22.231Z,62.80
2017-06-03T17:23:48.448Z,63.10
2017-06-03T17:26:14.678Z,64.60
2017-06-03T17:28:40.924Z,63.70
2017-06-03T17:31:07.094Z,64.30
2017-06-03T17:33:33.948Z,64.60
2017-06-03T17:36:00.880Z,65.50
2017-06-03T17:38:27.119Z,65.10
2017-06-03T17:40:55.111Z,66.40
2017-06-03T17:43:21.379Z,65.90
2017-06-03T17:45:48.455Z,65.50
2017-06-03T17:48:14.683Z,66.10
2017-06-03T17:50:40.926Z,65.50
2017-06-03T17:53:07.916Z,66.40
2017-06-03T17:55:34.199Z,66.40
2017-06-03T17:58:01.193Z,66.80
2017-06-03T18:00:27.393Z,66.80
2017-06-03T18:02:53.614Z,66.90
2017-06-03T18:05:20.559Z,67.60
2017-06-03T18:07:47.479Z,68.50
2017-06-03T18:10:13.654Z,68.30
2017-06-03T18:12:39.916Z,68.70
2017-06-03T18:15:06.122Z,68.40
2017-06-03T18:17:32.322Z,67.50
2017-06-03T18:19:59.289Z,67.60
2017-06-03T18:22:29.323Z,67.40
2017-06-03T18:24:55.577Z,68.10
2017-06-03T18:27:27.788Z,69.90
2017-06-03T18:29:54.792Z,69.30
2017-06-03T18:32:20.984Z,68.70
2017-06-03T18:34:47.172Z,69.50
2017-06-03T18:37:13.370Z,69.40
2017-06-03T18:39:39.555Z,70.00
2017-06-03T18:42:05.813Z,70.70
2017-06-03T18:44:32.774Z,69.40
2017-06-03T18:47:00.075Z,69.50
2017-06-03T18:49:26.314Z,69.60
2017-06-03T18:51:53.235Z,71.50
2017-06-03T18:54:19.470Z,70.20
2017-06-03T18:56:46.493Z,72.00
2017-06-03T18:59:12.690Z,71.90
2017-06-03T19:01:38.927Z,72.00
2017-06-03T19:04:06.059Z,72.50
2017-06-03T19:06:32.985Z,72.00
2017-06-03T19:08:59.986Z,72.70
2017-06-03T19:11:26.980Z,71.10
2017-06-03T19:13:53.147Z,71.70
2017-06-03T19:16:19.504Z,69.60
2017-06-03T19:18:45.767Z,70.20
2017-06-03T19:21:12.056Z,68.50
2017-06-03T19:23:38.294Z,68.50
2017-06-03T19:26:04.531Z,67.20
2017-06-03T19:28:30.767Z,67.80
2017-06-03T19:30:57.075Z,68.90
2017-06-03T19:33:23.279Z,68.80
2017-06-03T19:35:49.634Z,69.60
2017-06-03T19:38:15.807Z,68.10
2017-06-03T19:40:42.747Z,70.20
2017-06-03T19:43:09.769Z,70.00
2017-06-03T19:45:36.796Z,70.80
2017-06-03T19:48:03.077Z,70.60
2017-06-03T19:50:44.207Z,70.60
2017-06-03T19:53:10.508Z,69.60
2017-06-03T19:55:36.735Z,70.50
2017-06-03T19:58:03.051Z,71.30
2017-06-03T20:00:29.561Z,72.00
2017-06-03T20:02:57.055Z,72.50
2017-06-03T20:05:23.260Z,72.10
2017-06-03T20:07:50.425Z,72.70
2017-06-03T20:10:16.786Z,72.40
2017-06-03T20:12:43.113Z,72.50
2017-06-03T20:15:10.416Z,72.40
2017-06-03T20:17:39.932Z,72.10
2017-06-03T20:20:07.254Z,71.90
2017-06-03T20:22:33.679Z,71.90
2017-06-03T20:24:59.999Z,72.00
2017-06-03T20:27:26.440Z,72.00
2017-06-03T20:29:52.770Z,72.00
2017-06-03T20:32:20.057Z,71.90
2017-06-03T20:34:46.360Z,71.20
2017-06-03T20:37:12.780Z,71.10
2017-06-03T20:39:39.213Z,71.60
2017-06-03T20:42:05.559Z,70.30
2017-06-03T20:44:34.805Z,70.40
2017-06-03T20:47:01.903Z,70.30
2017-06-03T20:49:28.379Z,71.60
2017-06-03T20:51:54.787Z,70.60
2017-06-03T20:54:21.123Z,71.60
2017-06-03T20:56:47.444Z,72.30
2017-06-03T20:59:13.954Z,71.30
2017-06-03T21:01:40.490Z,71.10
2017-06-03T21:04:07.431Z,71.70
2017-06-03T21:06:33.697Z,70.80
2017-06-03T21:09:00.047Z,70.50
2017-06-03T21:11:27.032Z,70.00
2017-06-03T21:13:53.401Z,68.50
2017-06-03T21:16:19.858Z,69.10
2017-06-03T21:18:46.201Z,69.00
2017-06-03T21:21:13.276Z,68.50
2017-06-03T21:23:41.127Z,68.50
2017-06-03T21:26:08.166Z,68.50
2017-06-03T21:28:35.289Z,69.40
2017-06-03T21:31:01.609Z,68.30
2017-06-03T21:33:27.803Z,69.00
2017-06-03T21:35:55.025Z,69.10
2017-06-03T21:38:21.322Z,67.80
2017-06-03T21:40:47.791Z,69.60
2017-06-03T21:43:14.203Z,70.20
2017-06-03T21:45:42.776Z,69.90
2017-06-03T21:48:09.111Z,70.50
2017-06-03T21:50:35.432Z,69.80
2017-06-03T21:53:02.670Z,69.70
2017-06-03T21:55:28.996Z,69.20
2017-06-03T21:57:55.393Z,70.30
2017-06-03T22:00:24.999Z,70.80
2017-06-03T22:02:52.221Z,72.20
2017-06-03T22:05:20.878Z,73.20
2017-06-03T22:07:47.275Z,73.00
2017-06-03T22:10:14.306Z,73.70
2017-06-03T22:12:40.623Z,73.90
2017-06-03T22:15:07.051Z,73.60
2017-06-03T22:17:33.762Z,74.30
2017-06-03T22:19:59.981Z,73.80
2017-06-03T22:22:27.588Z,73.40
2017-06-03T22:24:53.967Z,73.90
2017-06-03T22:27:21.720Z,73.70
2017-06-03T22:29:48.360Z,74.00
2017-06-03T22:32:14.615Z,74.10
2017-06-03T22:34:40.804Z,74.30
2017-06-03T22:37:07.807Z,75.00
2017-06-03T22:39:34.026Z,75.20
2017-06-03T22:42:00.219Z,75.10
2017-06-03T22:44:27.336Z,75.70
2017-06-03T22:46:53.691Z,75.10
2017-06-03T22:49:20.836Z,76.20
2017-06-03T22:51:47.080Z,74.70
2017-06-03T22:54:14.991Z,74.30
2017-06-03T22:56:41.704Z,73.50
2017-06-03T22:59:07.915Z,73.60
2017-06-03T23:01:34.986Z,74.40
2017-06-03T23:04:01.197Z,73.60
2017-06-03T23:06:28.325Z,74.30
2017-06-03T23:08:54.526Z,74.60
2017-06-03T23:11:20.708Z,75.40
2017-06-03T23:13:47.752Z,76.00
2017-06-03T23:16:14.713Z,75.60
2017-06-03T23:18:40.972Z,75.60
2017-06-03T23:21:07.151Z,75.00
2017-06-03T23:23:34.141Z,75.90
2017-06-03T23:26:00.370Z,74.90
2017-06-03T23:28:26.562Z,75.00
2017-06-03T23:30:53.552Z,75.60
2017-06-03T23:33:19.835Z,74.90
2017-06-03T23:35:47.317Z,75.50
2017-06-03T23:38:13.506Z,75.00
2017-06-03T23:40:39.735Z,75.50
2017-06-03T23:43:05.924Z,75.50
2017-06-03T23:45:32.148Z,74.80
2017-06-03T23:47:58.323Z,75.40
2017-06-03T23:50:25.321Z,77.30
2017-06-03T23:52:51.535Z,77.10
2017-06-03T23:55:17.733Z,77.90
2017-06-03T23:57:43.982Z,78.20
